Metar z pełnej godziny Komunikat METAR ze strony awiacja.imgw.pl Metar G00 EPPO METAR EPPO 200400Z 26010KT 9999 SCT018 05/03 Q1016 R10/29//95 =